sensor_id;sensor_type;location;lat;lon;timestamp;P1;durP1;ratioP1;P2;durP2;ratioP2
25083;SDS011;13075;55.682;37.564;2022-12-29T00:02:11;2.47;;;1.75;;
25083;SDS011;13075;55.682;37.564;2022-12-29T00:04:38;4.63;;;1.52;;
25083;SDS011;13075;55.682;37.564;2022-12-29T00:07:04;5.15;;;1.70;;
25083;SDS011;13075;55.682;37.564;2022-12-29T00:09:30;4.18;;;1.35;;
25083;SDS011;13075;55.682;37.564;2022-12-29T00:11:57;9.60;;;3.58;;
25083;SDS011;13075;55.682;37.564;2022-12-29T00:14:22;8.43;;;1.23;;
25083;SDS011;13075;55.682;37.564;2022-12-29T00:17:07;4.05;;;1.25;;
25083;SDS011;13075;55.682;37.564;2022-12-29T00:19:32;7.03;;;1.88;;
25083;SDS011;13075;55.682;37.564;2022-12-29T00:22:16;11.48;;;1.50;;
25083;SDS011;13075;55.682;37.564;2022-12-29T00:27:27;6.10;;;1.40;;
25083;SDS011;13075;55.682;37.564;2022-12-29T00:30:18;5.95;;;1.58;;
25083;SDS011;13075;55.682;37.564;2022-12-29T00:33:14;5.65;;;1.30;;
25083;SDS011;13075;55.682;37.564;2022-12-29T00:38:35;3.58;;;0.90;;
25083;SDS011;13075;55.682;37.564;2022-12-29T00:41:22;4.10;;;1.52;;
25083;SDS011;13075;55.682;37.564;2022-12-29T00:46:33;4.65;;;1.30;;
25083;SDS011;13075;55.682;37.564;2022-12-29T00:48:59;5.13;;;1.33;;
25083;SDS011;13075;55.682;37.564;2022-12-29T00:51:44;2.83;;;1.02;;
25083;SDS011;13075;55.682;37.564;2022-12-29T00:54:09;3.03;;;1.42;;
25083;SDS011;13075;55.682;37.564;2022-12-29T00:56:36;8.38;;;3.25;;
25083;SDS011;13075;55.682;37.564;2022-12-29T00:59:07;4.70;;;1.75;;
25083;SDS011;13075;55.682;37.564;2022-12-29T01:01:34;3.88;;;1.65;;
25083;SDS011;13075;55.682;37.564;2022-12-29T01:04:02;8.18;;;1.35;;
25083;SDS011;13075;55.682;37.564;2022-12-29T01:06:28;5.68;;;1.58;;
25083;SDS011;13075;55.682;37.564;2022-12-29T01:08:53;6.85;;;1.40;;
25083;SDS011;13075;55.682;37.564;2022-12-29T01:11:38;5.18;;;1.65;;
25083;SDS011;13075;55.682;37.564;2022-12-29T01:14:05;3.90;;;1.15;;
25083;SDS011;13075;55.682;37.564;2022-12-29T01:16:31;8.00;;;2.00;;
25083;SDS011;13075;55.682;37.564;2022-12-29T01:18:56;5.18;;;1.17;;
25083;SDS011;13075;55.682;37.564;2022-12-29T01:21:22;5.75;;;1.45;;
25083;SDS011;13075;55.682;37.564;2022-12-29T01:23:49;6.05;;;2.35;;
25083;SDS011;13075;55.682;37.564;2022-12-29T01:26:16;3.60;;;1.40;;
25083;SDS011;13075;55.682;37.564;2022-12-29T01:28:42;3.88;;;1.52;;
25083;SDS011;13075;55.682;37.564;2022-12-29T01:31:12;8.13;;;1.90;;
25083;SDS011;13075;55.682;37.564;2022-12-29T01:33:39;7.35;;;2.15;;
25083;SDS011;13075;55.682;37.564;2022-12-29T01:36:07;6.18;;;2.17;;
25083;SDS011;13075;55.682;37.564;2022-12-29T01:38:35;4.43;;;1.33;;
25083;SDS011;13075;55.682;37.564;2022-12-29T01:41:01;2.88;;;1.45;;
25083;SDS011;13075;55.682;37.564;2022-12-29T01:46:33;5.03;;;1.90;;
25083;SDS011;13075;55.682;37.564;2022-12-29T01:51:42;13.00;;;2.15;;
25083;SDS011;13075;55.682;37.564;2022-12-29T01:56:59;5.28;;;1.38;;
25083;SDS011;13075;55.682;37.564;2022-12-29T01:59:33;5.05;;;1.77;;
25083;SDS011;13075;55.682;37.564;2022-12-29T02:02:04;7.28;;;1.67;;
25083;SDS011;13075;55.682;37.564;2022-12-29T02:04:31;11.88;;;2.10;;
25083;SDS011;13075;55.682;37.564;2022-12-29T02:07:02;4.20;;;1.73;;
25083;SDS011;13075;55.682;37.564;2022-12-29T02:09:31;6.70;;;1.75;;
25083;SDS011;13075;55.682;37.564;2022-12-29T02:11:57;5.00;;;1.83;;
25083;SDS011;13075;55.682;37.564;2022-12-29T02:14:24;4.13;;;1.45;;
25083;SDS011;13075;55.682;37.564;2022-12-29T02:22:00;6.10;;;2.25;;
25083;SDS011;13075;55.682;37.564;2022-12-29T02:27:53;6.60;;;2.38;;
25083;SDS011;13075;55.682;37.564;2022-12-29T02:30:56;11.57;;;2.70;;
25083;SDS011;13075;55.682;37.564;2022-12-29T02:33:34;6.73;;;2.33;;
25083;SDS011;13075;55.682;37.564;2022-12-29T02:47:06;9.20;;;2.28;;
25083;SDS011;13075;55.682;37.564;2022-12-29T02:52:12;10.32;;;2.00;;
25083;SDS011;13075;55.682;37.564;2022-12-29T02:54:41;8.38;;;1.98;;
25083;SDS011;13075;55.682;37.564;2022-12-29T02:57:31;5.60;;;1.77;;
25083;SDS011;13075;55.682;37.564;2022-12-29T03:00:08;7.90;;;1.85;;
25083;SDS011;13075;55.682;37.564;2022-12-29T03:11:20;5.30;;;2.00;;
25083;SDS011;13075;55.682;37.564;2022-12-29T03:17:19;11.27;;;2.70;;
25083;SDS011;13075;55.682;37.564;2022-12-29T03:19:56;11.55;;;1.77;;
25083;SDS011;13075;55.682;37.564;2022-12-29T03:22:29;7.75;;;2.00;;
25083;SDS011;13075;55.682;37.564;2022-12-29T03:25:38;5.88;;;2.50;;
25083;SDS011;13075;55.682;37.564;2022-12-29T03:28:07;5.38;;;1.65;;
25083;SDS011;13075;55.682;37.564;2022-12-29T03:30:41;7.43;;;1.90;;
25083;SDS011;13075;55.682;37.564;2022-12-29T03:33:07;4.25;;;1.80;;
25083;SDS011;13075;55.682;37.564;2022-12-29T03:35:38;4.20;;;2.00;;
25083;SDS011;13075;55.682;37.564;2022-12-29T03:40:44;3.90;;;1.55;;
25083;SDS011;13075;55.682;37.564;2022-12-29T03:43:13;7.72;;;1.92;;
25083;SDS011;13075;55.682;37.564;2022-12-29T03:45:41;8.35;;;2.72;;
25083;SDS011;13075;55.682;37.564;2022-12-29T03:48:06;6.07;;;2.60;;
25083;SDS011;13075;55.682;37.564;2022-12-29T03:50:32;7.68;;;2.80;;
25083;SDS011;13075;55.682;37.564;2022-12-29T03:52:58;7.70;;;2.47;;
25083;SDS011;13075;55.682;37.564;2022-12-29T03:55:25;7.28;;;2.40;;
25083;SDS011;13075;55.682;37.564;2022-12-29T03:57:51;7.25;;;2.50;;
25083;SDS011;13075;55.682;37.564;2022-12-29T04:00:26;4.70;;;2.28;;
25083;SDS011;13075;55.682;37.564;2022-12-29T04:02:52;7.82;;;1.85;;
25083;SDS011;13075;55.682;37.564;2022-12-29T04:05:20;8.93;;;3.25;;
25083;SDS011;13075;55.682;37.564;2022-12-29T04:07:48;7.82;;;2.60;;
25083;SDS011;13075;55.682;37.564;2022-12-29T04:10:13;8.63;;;2.13;;
25083;SDS011;13075;55.682;37.564;2022-12-29T04:12:39;6.55;;;2.40;;
25083;SDS011;13075;55.682;37.564;2022-12-29T04:15:07;8.40;;;2.15;;
25083;SDS011;13075;55.682;37.564;2022-12-29T04:17:34;10.77;;;2.55;;
25083;SDS011;13075;55.682;37.564;2022-12-29T04:20:00;9.50;;;2.83;;
25083;SDS011;13075;55.682;37.564;2022-12-29T04:25:10;8.52;;;2.55;;
25083;SDS011;13075;55.682;37.564;2022-12-29T04:27:36;10.25;;;2.47;;
25083;SDS011;13075;55.682;37.564;2022-12-29T04:32:59;7.30;;;3.08;;
25083;SDS011;13075;55.682;37.564;2022-12-29T04:35:27;9.95;;;3.05;;
25083;SDS011;13075;55.682;37.564;2022-12-29T04:37:53;16.85;;;3.08;;
25083;SDS011;13075;55.682;37.564;2022-12-29T04:40:19;5.75;;;2.30;;
25083;SDS011;13075;55.682;37.564;2022-12-29T04:42:44;18.20;;;3.42;;
25083;SDS011;13075;55.682;37.564;2022-12-29T04:45:10;8.27;;;3.17;;
25083;SDS011;13075;55.682;37.564;2022-12-29T04:47:49;7.80;;;3.15;;
25083;SDS011;13075;55.682;37.564;2022-12-29T04:53:14;9.80;;;3.00;;
25083;SDS011;13075;55.682;37.564;2022-12-29T04:55:41;7.20;;;3.13;;
25083;SDS011;13075;55.682;37.564;2022-12-29T04:58:07;8.55;;;2.40;;
25083;SDS011;13075;55.682;37.564;2022-12-29T05:00:34;6.10;;;2.22;;
25083;SDS011;13075;55.682;37.564;2022-12-29T05:03:00;7.70;;;2.97;;
25083;SDS011;13075;55.682;37.564;2022-12-29T05:05:26;12.13;;;2.47;;
25083;SDS011;13075;55.682;37.564;2022-12-29T05:07:52;8.95;;;2.67;;
25083;SDS011;13075;55.682;37.564;2022-12-29T05:10:17;13.65;;;3.58;;
25083;SDS011;13075;55.682;37.564;2022-12-29T05:12:43;4.30;;;2.25;;
25083;SDS011;13075;55.682;37.564;2022-12-29T05:15:11;6.72;;;2.70;;
25083;SDS011;13075;55.682;37.564;2022-12-29T05:17:37;7.03;;;2.92;;
25083;SDS011;13075;55.682;37.564;2022-12-29T05:20:05;10.20;;;2.40;;
25083;SDS011;13075;55.682;37.564;2022-12-29T05:22:32;6.25;;;2.35;;
25083;SDS011;13075;55.682;37.564;2022-12-29T05:24:58;10.55;;;2.80;;
25083;SDS011;13075;55.682;37.564;2022-12-29T05:27:24;8.35;;;3.22;;
25083;SDS011;13075;55.682;37.564;2022-12-29T05:30:13;7.72;;;3.35;;
25083;SDS011;13075;55.682;37.564;2022-12-29T05:32:39;4.72;;;2.53;;
25083;SDS011;13075;55.682;37.564;2022-12-29T05:35:06;7.30;;;2.85;;
25083;SDS011;13075;55.682;37.564;2022-12-29T05:37:32;7.47;;;2.70;;
25083;SDS011;13075;55.682;37.564;2022-12-29T05:39:58;6.25;;;3.03;;
25083;SDS011;13075;55.682;37.564;2022-12-29T05:42:24;7.30;;;4.22;;
25083;SDS011;13075;55.682;37.564;2022-12-29T05:45:13;6.57;;;3.20;;
25083;SDS011;13075;55.682;37.564;2022-12-29T05:48:02;7.63;;;3.17;;
25083;SDS011;13075;55.682;37.564;2022-12-29T05:50:48;11.40;;;2.10;;
25083;SDS011;13075;55.682;37.564;2022-12-29T05:53:17;6.97;;;3.30;;
25083;SDS011;13075;55.682;37.564;2022-12-29T05:55:43;11.52;;;3.42;;
25083;SDS011;13075;55.682;37.564;2022-12-29T05:58:11;7.30;;;2.88;;
25083;SDS011;13075;55.682;37.564;2022-12-29T06:00:37;4.63;;;3.22;;
25083;SDS011;13075;55.682;37.564;2022-12-29T06:03:03;15.23;;;2.92;;
25083;SDS011;13075;55.682;37.564;2022-12-29T06:05:29;9.55;;;3.25;;
25083;SDS011;13075;55.682;37.564;2022-12-29T06:07:56;9.82;;;3.75;;
25083;SDS011;13075;55.682;37.564;2022-12-29T06:10:21;6.38;;;3.58;;
25083;SDS011;13075;55.682;37.564;2022-12-29T06:12:56;12.40;;;4.22;;
25083;SDS011;13075;55.682;37.564;2022-12-29T06:15:21;9.18;;;4.07;;
25083;SDS011;13075;55.682;37.564;2022-12-29T06:17:49;5.88;;;4.65;;
25083;SDS011;13075;55.682;37.564;2022-12-29T06:20:14;13.95;;;4.50;;
25083;SDS011;13075;55.682;37.564;2022-12-29T06:22:41;7.85;;;4.47;;
25083;SDS011;13075;55.682;37.564;2022-12-29T06:25:07;10.20;;;4.45;;
25083;SDS011;13075;55.682;37.564;2022-12-29T06:27:34;11.52;;;5.30;;
25083;SDS011;13075;55.682;37.564;2022-12-29T06:29:59;7.88;;;4.18;;
25083;SDS011;13075;55.682;37.564;2022-12-29T06:32:25;8.68;;;4.13;;
25083;SDS011;13075;55.682;37.564;2022-12-29T06:34:54;8.93;;;4.47;;
25083;SDS011;13075;55.682;37.564;2022-12-29T06:37:20;6.65;;;4.00;;
25083;SDS011;13075;55.682;37.564;2022-12-29T06:39:45;15.98;;;5.22;;
25083;SDS011;13075;55.682;37.564;2022-12-29T06:42:13;17.63;;;5.38;;
25083;SDS011;13075;55.682;37.564;2022-12-29T06:44:38;14.13;;;4.18;;
25083;SDS011;13075;55.682;37.564;2022-12-29T06:47:08;7.95;;;3.75;;
25083;SDS011;13075;55.682;37.564;2022-12-29T06:49:34;13.35;;;3.95;;
25083;SDS011;13075;55.682;37.564;2022-12-29T06:51:59;11.50;;;4.03;;
25083;SDS011;13075;55.682;37.564;2022-12-29T06:54:28;10.15;;;3.70;;
25083;SDS011;13075;55.682;37.564;2022-12-29T06:56:54;10.77;;;4.45;;
25083;SDS011;13075;55.682;37.564;2022-12-29T06:59:19;8.50;;;3.70;;
25083;SDS011;13075;55.682;37.564;2022-12-29T07:01:45;12.35;;;4.15;;
25083;SDS011;13075;55.682;37.564;2022-12-29T07:04:10;11.43;;;4.65;;
25083;SDS011;13075;55.682;37.564;2022-12-29T07:06:36;11.85;;;4.15;;
25083;SDS011;13075;55.682;37.564;2022-12-29T07:09:02;9.30;;;4.55;;
25083;SDS011;13075;55.682;37.564;2022-12-29T07:11:27;12.55;;;4.53;;
25083;SDS011;13075;55.682;37.564;2022-12-29T07:13:53;8.57;;;4.65;;
25083;SDS011;13075;55.682;37.564;2022-12-29T07:16:19;9.07;;;5.78;;
25083;SDS011;13075;55.682;37.564;2022-12-29T07:18:45;7.15;;;4.32;;
25083;SDS011;13075;55.682;37.564;2022-12-29T07:21:11;46.60;;;29.13;;
25083;SDS011;13075;55.682;37.564;2022-12-29T07:23:37;15.93;;;10.02;;
25083;SDS011;13075;55.682;37.564;2022-12-29T07:26:03;15.70;;;8.00;;
25083;SDS011;13075;55.682;37.564;2022-12-29T07:28:30;9.45;;;5.93;;
25083;SDS011;13075;55.682;37.564;2022-12-29T07:30:57;8.23;;;4.68;;
25083;SDS011;13075;55.682;37.564;2022-12-29T07:33:24;7.32;;;3.85;;
25083;SDS011;13075;55.682;37.564;2022-12-29T07:35:49;14.50;;;5.18;;
25083;SDS011;13075;55.682;37.564;2022-12-29T07:38:15;13.48;;;6.75;;
25083;SDS011;13075;55.682;37.564;2022-12-29T07:40:42;10.52;;;6.18;;
25083;SDS011;13075;55.682;37.564;2022-12-29T07:43:07;15.85;;;10.43;;
25083;SDS011;13075;55.682;37.564;2022-12-29T07:45:40;18.13;;;11.23;;
25083;SDS011;13075;55.682;37.564;2022-12-29T07:48:08;13.95;;;7.60;;
25083;SDS011;13075;55.682;37.564;2022-12-29T07:50:34;10.15;;;6.32;;
25083;SDS011;13075;55.682;37.564;2022-12-29T07:53:01;11.50;;;6.80;;
25083;SDS011;13075;55.682;37.564;2022-12-29T07:55:27;14.75;;;5.13;;
25083;SDS011;13075;55.682;37.564;2022-12-29T07:57:54;12.93;;;5.63;;
25083;SDS011;13075;55.682;37.564;2022-12-29T08:00:20;23.23;;;6.38;;
25083;SDS011;13075;55.682;37.564;2022-12-29T08:02:46;8.00;;;4.75;;
25083;SDS011;13075;55.682;37.564;2022-12-29T08:05:11;12.02;;;6.03;;
25083;SDS011;13075;55.682;37.564;2022-12-29T08:07:37;13.52;;;5.38;;
25083;SDS011;13075;55.682;37.564;2022-12-29T08:10:03;7.30;;;4.10;;
25083;SDS011;13075;55.682;37.564;2022-12-29T08:12:29;12.23;;;6.47;;
25083;SDS011;13075;55.682;37.564;2022-12-29T08:14:55;10.07;;;5.57;;
25083;SDS011;13075;55.682;37.564;2022-12-29T08:17:20;14.50;;;8.13;;
25083;SDS011;13075;55.682;37.564;2022-12-29T08:19:46;15.50;;;6.72;;
25083;SDS011;13075;55.682;37.564;2022-12-29T08:22:12;12.70;;;6.13;;
25083;SDS011;13075;55.682;37.564;2022-12-29T08:24:40;15.05;;;7.53;;
25083;SDS011;13075;55.682;37.564;2022-12-29T08:27:06;18.38;;;8.38;;
25083;SDS011;13075;55.682;37.564;2022-12-29T08:29:32;17.88;;;8.43;;
25083;SDS011;13075;55.682;37.564;2022-12-29T08:31:57;15.27;;;8.43;;
25083;SDS011;13075;55.682;37.564;2022-12-29T08:34:23;18.08;;;9.35;;
25083;SDS011;13075;55.682;37.564;2022-12-29T08:36:48;18.90;;;9.43;;
25083;SDS011;13075;55.682;37.564;2022-12-29T08:39:14;17.92;;;8.90;;
25083;SDS011;13075;55.682;37.564;2022-12-29T08:41:40;18.83;;;10.60;;
25083;SDS011;13075;55.682;37.564;2022-12-29T08:44:06;18.35;;;9.77;;
25083;SDS011;13075;55.682;37.564;2022-12-29T08:46:31;16.88;;;9.43;;
25083;SDS011;13075;55.682;37.564;2022-12-29T08:48:57;18.95;;;10.10;;
25083;SDS011;13075;55.682;37.564;2022-12-29T08:51:23;20.95;;;10.63;;
25083;SDS011;13075;55.682;37.564;2022-12-29T08:53:48;15.75;;;9.10;;
25083;SDS011;13075;55.682;37.564;2022-12-29T08:56:14;16.73;;;8.40;;
25083;SDS011;13075;55.682;37.564;2022-12-29T08:58:47;16.33;;;7.83;;
25083;SDS011;13075;55.682;37.564;2022-12-29T09:01:12;13.40;;;7.05;;
25083;SDS011;13075;55.682;37.564;2022-12-29T09:03:38;13.63;;;7.95;;
25083;SDS011;13075;55.682;37.564;2022-12-29T09:06:04;15.55;;;6.72;;
25083;SDS011;13075;55.682;37.564;2022-12-29T09:08:29;14.00;;;7.05;;
25083;SDS011;13075;55.682;37.564;2022-12-29T09:10:55;18.25;;;7.45;;
25083;SDS011;13075;55.682;37.564;2022-12-29T09:13:30;10.70;;;6.10;;
25083;SDS011;13075;55.682;37.564;2022-12-29T09:15:58;14.30;;;7.13;;
25083;SDS011;13075;55.682;37.564;2022-12-29T09:18:24;13.63;;;7.38;;
25083;SDS011;13075;55.682;37.564;2022-12-29T09:20:55;8.93;;;5.90;;
25083;SDS011;13075;55.682;37.564;2022-12-29T09:23:28;16.05;;;7.35;;
25083;SDS011;13075;55.682;37.564;2022-12-29T09:25:54;12.55;;;6.38;;
25083;SDS011;13075;55.682;37.564;2022-12-29T09:28:20;13.15;;;6.80;;
25083;SDS011;13075;55.682;37.564;2022-12-29T09:30:46;12.57;;;6.85;;
25083;SDS011;13075;55.682;37.564;2022-12-29T09:33:12;9.75;;;6.25;;
25083;SDS011;13075;55.682;37.564;2022-12-29T09:35:42;13.02;;;6.90;;
25083;SDS011;13075;55.682;37.564;2022-12-29T09:38:08;12.15;;;7.00;;
25083;SDS011;13075;55.682;37.564;2022-12-29T09:40:34;16.92;;;6.82;;
25083;SDS011;13075;55.682;37.564;2022-12-29T09:43:07;11.65;;;6.38;;
25083;SDS011;13075;55.682;37.564;2022-12-29T09:51:39;15.07;;;7.13;;
25083;SDS011;13075;55.682;37.564;2022-12-29T09:54:19;14.20;;;6.80;;
25083;SDS011;13075;55.682;37.564;2022-12-29T09:56:46;14.82;;;7.07;;
25083;SDS011;13075;55.682;37.564;2022-12-29T09:59:17;12.40;;;7.70;;
25083;SDS011;13075;55.682;37.564;2022-12-29T10:01:48;13.63;;;6.63;;
25083;SDS011;13075;55.682;37.564;2022-12-29T10:04:19;10.60;;;6.72;;
25083;SDS011;13075;55.682;37.564;2022-12-29T10:06:53;17.65;;;6.75;;
25083;SDS011;13075;55.682;37.564;2022-12-29T10:09:42;11.23;;;7.32;;
25083;SDS011;13075;55.682;37.564;2022-12-29T10:21:28;10.32;;;7.25;;
25083;SDS011;13075;55.682;37.564;2022-12-29T10:24:19;10.63;;;6.57;;
25083;SDS011;13075;55.682;37.564;2022-12-29T10:26:47;12.02;;;6.78;;
25083;SDS011;13075;55.682;37.564;2022-12-29T10:29:20;11.52;;;6.60;;
25083;SDS011;13075;55.682;37.564;2022-12-29T10:31:50;12.27;;;7.38;;
25083;SDS011;13075;55.682;37.564;2022-12-29T10:40:00;13.38;;;6.32;;
25083;SDS011;13075;55.682;37.564;2022-12-29T10:45:10;13.32;;;6.40;;
25083;SDS011;13075;55.682;37.564;2022-12-29T10:47:47;15.15;;;7.82;;
25083;SDS011;13075;55.682;37.564;2022-12-29T10:50:35;8.68;;;7.25;;
25083;SDS011;13075;55.682;37.564;2022-12-29T10:53:07;15.95;;;7.60;;
25083;SDS011;13075;55.682;37.564;2022-12-29T10:55:44;18.60;;;8.27;;
25083;SDS011;13075;55.682;37.564;2022-12-29T10:58:12;10.98;;;7.55;;
25083;SDS011;13075;55.682;37.564;2022-12-29T11:00:39;12.82;;;8.07;;
25083;SDS011;13075;55.682;37.564;2022-12-29T11:08:30;17.65;;;7.57;;
25083;SDS011;13075;55.682;37.564;2022-12-29T11:11:10;9.90;;;6.75;;
25083;SDS011;13075;55.682;37.564;2022-12-29T11:13:49;11.82;;;6.53;;
25083;SDS011;13075;55.682;37.564;2022-12-29T11:16:31;9.88;;;6.47;;
25083;SDS011;13075;55.682;37.564;2022-12-29T11:18:59;12.50;;;7.20;;
25083;SDS011;13075;55.682;37.564;2022-12-29T11:21:33;12.95;;;6.80;;
25083;SDS011;13075;55.682;37.564;2022-12-29T11:24:14;12.40;;;5.78;;
25083;SDS011;13075;55.682;37.564;2022-12-29T11:27:35;11.77;;;6.13;;
25083;SDS011;13075;55.682;37.564;2022-12-29T11:29:45;8.60;;;6.40;;
25083;SDS011;13075;55.682;37.564;2022-12-29T11:32:21;18.20;;;11.02;;
25083;SDS011;13075;55.682;37.564;2022-12-29T11:34:48;13.60;;;6.22;;
25083;SDS011;13075;55.682;37.564;2022-12-29T11:37:16;12.55;;;6.60;;
25083;SDS011;13075;55.682;37.564;2022-12-29T11:42:16;11.27;;;6.30;;
25083;SDS011;13075;55.682;37.564;2022-12-29T11:44:45;12.32;;;6.70;;
25083;SDS011;13075;55.682;37.564;2022-12-29T11:47:23;12.70;;;7.18;;
25083;SDS011;13075;55.682;37.564;2022-12-29T11:49:54;14.45;;;7.63;;
25083;SDS011;13075;55.682;37.564;2022-12-29T11:52:32;10.70;;;6.05;;
25083;SDS011;13075;55.682;37.564;2022-12-29T11:55:01;10.52;;;6.93;;
25083;SDS011;13075;55.682;37.564;2022-12-29T11:57:30;11.50;;;7.82;;
25083;SDS011;13075;55.682;37.564;2022-12-29T11:59:59;34.20;;;16.63;;
25083;SDS011;13075;55.682;37.564;2022-12-29T12:05:45;11.73;;;6.15;;
25083;SDS011;13075;55.682;37.564;2022-12-29T12:16:50;14.25;;;7.30;;
25083;SDS011;13075;55.682;37.564;2022-12-29T12:19:34;13.63;;;7.85;;
25083;SDS011;13075;55.682;37.564;2022-12-29T12:22:10;15.82;;;7.35;;
25083;SDS011;13075;55.682;37.564;2022-12-29T12:24:48;17.95;;;9.57;;
25083;SDS011;13075;55.682;37.564;2022-12-29T12:27:37;19.95;;;8.07;;
25083;SDS011;13075;55.682;37.564;2022-12-29T12:30:20;15.48;;;7.85;;
25083;SDS011;13075;55.682;37.564;2022-12-29T12:40:35;11.73;;;6.78;;
25083;SDS011;13075;55.682;37.564;2022-12-29T12:49:07;18.17;;;9.18;;
25083;SDS011;13075;55.682;37.564;2022-12-29T13:00:08;16.77;;;8.90;;
25083;SDS011;13075;55.682;37.564;2022-12-29T13:22:42;22.27;;;9.23;;
25083;SDS011;13075;55.682;37.564;2022-12-29T13:25:33;20.63;;;9.25;;
25083;SDS011;13075;55.682;37.564;2022-12-29T13:33:30;23.10;;;9.60;;
25083;SDS011;13075;55.682;37.564;2022-12-29T13:36:19;22.95;;;10.25;;
25083;SDS011;13075;55.682;37.564;2022-12-29T13:38:55;21.80;;;10.20;;
25083;SDS011;13075;55.682;37.564;2022-12-29T13:41:39;29.30;;;10.88;;
25083;SDS011;13075;55.682;37.564;2022-12-29T13:44:09;23.27;;;10.70;;
25083;SDS011;13075;55.682;37.564;2022-12-29T13:49:14;20.83;;;10.65;;
25083;SDS011;13075;55.682;37.564;2022-12-29T13:51:47;32.55;;;10.93;;
25083;SDS011;13075;55.682;37.564;2022-12-29T13:54:31;26.27;;;10.63;;
25083;SDS011;13075;55.682;37.564;2022-12-29T13:59:59;25.02;;;11.02;;
25083;SDS011;13075;55.682;37.564;2022-12-29T14:05:03;23.38;;;10.38;;
25083;SDS011;13075;55.682;37.564;2022-12-29T14:07:56;27.85;;;11.88;;
25083;SDS011;13075;55.682;37.564;2022-12-29T14:13:09;24.52;;;11.07;;
25083;SDS011;13075;55.682;37.564;2022-12-29T14:15:38;25.95;;;11.70;;
25083;SDS011;13075;55.682;37.564;2022-12-29T14:23:43;27.38;;;10.93;;
25083;SDS011;13075;55.682;37.564;2022-12-29T14:26:11;27.55;;;10.95;;
25083;SDS011;13075;55.682;37.564;2022-12-29T14:28:42;29.05;;;12.95;;
25083;SDS011;13075;55.682;37.564;2022-12-29T14:34:14;28.30;;;12.15;;
25083;SDS011;13075;55.682;37.564;2022-12-29T14:36:37;29.70;;;12.63;;
25083;SDS011;13075;55.682;37.564;2022-12-29T14:39:41;30.25;;;12.07;;
25083;SDS011;13075;55.682;37.564;2022-12-29T14:42:06;30.55;;;14.20;;
25083;SDS011;13075;55.682;37.564;2022-12-29T14:45:23;38.67;;;13.68;;
25083;SDS011;13075;55.682;37.564;2022-12-29T14:49:56;26.98;;;12.18;;
25083;SDS011;13075;55.682;37.564;2022-12-29T14:52:41;31.13;;;14.30;;
25083;SDS011;13075;55.682;37.564;2022-12-29T14:57:43;38.55;;;15.32;;
25083;SDS011;13075;55.682;37.564;2022-12-29T15:00:22;32.75;;;15.35;;
25083;SDS011;13075;55.682;37.564;2022-12-29T15:05:37;33.85;;;12.82;;
25083;SDS011;13075;55.682;37.564;2022-12-29T15:08:09;35.08;;;14.48;;
25083;SDS011;13075;55.682;37.564;2022-12-29T15:10:40;35.83;;;15.25;;
25083;SDS011;13075;55.682;37.564;2022-12-29T15:13:35;30.55;;;13.68;;
25083;SDS011;13075;55.682;37.564;2022-12-29T15:16:02;43.75;;;14.00;;
25083;SDS011;13075;55.682;37.564;2022-12-29T15:18:29;37.25;;;14.30;;
25083;SDS011;13075;55.682;37.564;2022-12-29T15:20:58;37.30;;;14.95;;
25083;SDS011;13075;55.682;37.564;2022-12-29T15:23:27;40.10;;;14.57;;
25083;SDS011;13075;55.682;37.564;2022-12-29T15:28:28;38.55;;;15.30;;
25083;SDS011;13075;55.682;37.564;2022-12-29T15:31:10;38.83;;;15.88;;
25083;SDS011;13075;55.682;37.564;2022-12-29T15:33:37;43.50;;;16.40;;
25083;SDS011;13075;55.682;37.564;2022-12-29T15:36:10;39.50;;;16.95;;
25083;SDS011;13075;55.682;37.564;2022-12-29T15:38:44;42.40;;;16.80;;
25083;SDS011;13075;55.682;37.564;2022-12-29T15:46:21;47.60;;;20.35;;
25083;SDS011;13075;55.682;37.564;2022-12-29T15:48:47;48.67;;;18.80;;
25083;SDS011;13075;55.682;37.564;2022-12-29T15:53:48;45.65;;;17.95;;
25083;SDS011;13075;55.682;37.564;2022-12-29T15:56:16;58.17;;;20.75;;
25083;SDS011;13075;55.682;37.564;2022-12-29T15:58:43;34.28;;;18.63;;
25083;SDS011;13075;55.682;37.564;2022-12-29T16:01:19;49.15;;;19.10;;
25083;SDS011;13075;55.682;37.564;2022-12-29T16:03:51;34.35;;;17.15;;
25083;SDS011;13075;55.682;37.564;2022-12-29T16:09:35;45.22;;;17.73;;
25083;SDS011;13075;55.682;37.564;2022-12-29T16:12:14;44.75;;;18.27;;
25083;SDS011;13075;55.682;37.564;2022-12-29T16:14:47;42.67;;;17.75;;
25083;SDS011;13075;55.682;37.564;2022-12-29T16:17:22;48.00;;;20.00;;
25083;SDS011;13075;55.682;37.564;2022-12-29T16:19:57;47.35;;;21.08;;
25083;SDS011;13075;55.682;37.564;2022-12-29T16:22:30;45.47;;;17.92;;
25083;SDS011;13075;55.682;37.564;2022-12-29T16:24:59;55.00;;;19.15;;
25083;SDS011;13075;55.682;37.564;2022-12-29T16:27:31;54.45;;;18.88;;
25083;SDS011;13075;55.682;37.564;2022-12-29T16:29:57;49.53;;;17.00;;
25083;SDS011;13075;55.682;37.564;2022-12-29T16:32:30;47.80;;;20.05;;
25083;SDS011;13075;55.682;37.564;2022-12-29T16:35:09;58.67;;;18.98;;
25083;SDS011;13075;55.682;37.564;2022-12-29T16:37:37;66.68;;;20.05;;
25083;SDS011;13075;55.682;37.564;2022-12-29T16:42:47;64.00;;;21.30;;
25083;SDS011;13075;55.682;37.564;2022-12-29T16:50:31;54.67;;;22.65;;
25083;SDS011;13075;55.682;37.564;2022-12-29T16:52:59;50.45;;;20.15;;
25083;SDS011;13075;55.682;37.564;2022-12-29T16:55:25;52.85;;;20.77;;
25083;SDS011;13075;55.682;37.564;2022-12-29T16:57:52;67.75;;;21.70;;
25083;SDS011;13075;55.682;37.564;2022-12-29T17:00:31;58.70;;;19.98;;
25083;SDS011;13075;55.682;37.564;2022-12-29T17:03:00;59.70;;;22.13;;
25083;SDS011;13075;55.682;37.564;2022-12-29T17:05:27;65.50;;;21.80;;
25083;SDS011;13075;55.682;37.564;2022-12-29T17:07:53;62.22;;;21.25;;
25083;SDS011;13075;55.682;37.564;2022-12-29T17:10:20;62.72;;;22.10;;
25083;SDS011;13075;55.682;37.564;2022-12-29T17:12:47;56.17;;;21.67;;
25083;SDS011;13075;55.682;37.564;2022-12-29T17:17:47;60.35;;;20.70;;
25083;SDS011;13075;55.682;37.564;2022-12-29T17:22:41;51.33;;;20.30;;
25083;SDS011;13075;55.682;37.564;2022-12-29T17:25:10;59.25;;;21.02;;
25083;SDS011;13075;55.682;37.564;2022-12-29T17:27:40;62.47;;;22.10;;
25083;SDS011;13075;55.682;37.564;2022-12-29T17:32:41;49.60;;;17.65;;
25083;SDS011;13075;55.682;37.564;2022-12-29T17:35:14;60.65;;;20.83;;
25083;SDS011;13075;55.682;37.564;2022-12-29T17:37:41;58.85;;;22.08;;
25083;SDS011;13075;55.682;37.564;2022-12-29T17:40:11;57.05;;;19.33;;
25083;SDS011;13075;55.682;37.564;2022-12-29T17:42:44;62.17;;;21.38;;
25083;SDS011;13075;55.682;37.564;2022-12-29T17:45:15;60.25;;;20.55;;
25083;SDS011;13075;55.682;37.564;2022-12-29T17:47:42;42.65;;;18.20;;
25083;SDS011;13075;55.682;37.564;2022-12-29T17:50:10;59.20;;;19.80;;
25083;SDS011;13075;55.682;37.564;2022-12-29T17:52:37;42.70;;;18.80;;
25083;SDS011;13075;55.682;37.564;2022-12-29T17:55:04;46.70;;;20.67;;
25083;SDS011;13075;55.682;37.564;2022-12-29T17:57:30;45.03;;;19.00;;
25083;SDS011;13075;55.682;37.564;2022-12-29T17:59:55;41.30;;;18.88;;
25083;SDS011;13075;55.682;37.564;2022-12-29T18:02:28;47.10;;;18.30;;
25083;SDS011;13075;55.682;37.564;2022-12-29T18:04:56;49.80;;;18.67;;
25083;SDS011;13075;55.682;37.564;2022-12-29T18:07:24;50.30;;;19.15;;
25083;SDS011;13075;55.682;37.564;2022-12-29T18:09:51;51.25;;;19.67;;
25083;SDS011;13075;55.682;37.564;2022-12-29T18:12:32;50.92;;;19.48;;